Nenana Municipal Airport
PANN : now visible

Airfield :











YOU CAN JOIN US ON...

 
LOGIN :

Register | Disclaimer

   EN    FR    IT 

 









Legend :    VFR   Marginal VFR   IFR   Intensive IFR   Very Intensive IFR
Visi :
Ceiling :
>= 8 km
>= 3000ft
5 to 8 km
1000 to 3000 ft
1500m to 5 km
500 to 1000 ft
800 to 1500m
200 to 500 ft
< 800m
< 200 ft
Symbols :   Thunderstorms  Fog  Heavy snow  Heavy precipitations  Wind > 20 kt






- Airport Elevation : 362 ft
- IATA code : ENN


PANN - Nenana Municipal

CURRENT METAR :
  • 242353Z AUTO 00000KT 10SM CLR 28/14 A2987 RMK AO2 SLP117 T02780144 10283 20217 58012 TSNO

EXPIRED METARs :
  • 242253Z AUTO 00000KT 10SM CLR 27/15 A2988 RMK AO2 SLP122 T02670150 TSNO
  • 242153Z AUTO 00000KT 9SM CLR 24/17 A2989 RMK AO2 SLP125 T02440172 TSNO
  • 242053Z AUTO 00000KT 7SM CLR 24/16 A2990 RMK AO2 SLP129 T02440156 58006 TSNO
  • 241953Z AUTO 00000KT 6SM HZ CLR 23/15 A2991 RMK AO2 SLP132 T02330150 TSNO

TAF N/A
PAZA FIR / North America



MET'MAP, your aeronautical weather chart ! - Copyright ORBIFLY December 2007 - Disclaimer

ORBIFLY MET'MAP TEAM :

Programming & Development : Alexandra Zaïnal
Original concept : Baudouin d'Aumeries
Technical & hardware support : Manuel Goepfert
Assistance : Marc-Olivier Méhu




SOURCES & CREDITS :

   NOAA       Earth
Advisory